Time;durP1;ratioP1;P1;durP2;ratioP2;P2;SDS_P1;SDS_P2;PMS_P1;PMS_P2;Temp;Humidity;BMP_temperature;BMP_pressure;BME280_temperature;BME280_humidity;BME280_pressure;Samples;Min_cycle;Max_cycle;Signal;HPM_P1;HPM_P2
2022/05/29 00:00:05;;;;;;;38.20;4.20;;;;;;;36.29;13.57;100241.22;5085345;28;20489;-65
2022/05/29 00:02:40;;;;;;;30.30;4.78;;;;;;;36.47;13.27;100246.34;5086402;28;20040;-64
2022/05/29 00:05:08;;;;;;;39.42;4.13;;;;;;;36.61;13.39;100245.06;5082788;28;20483;-64
2022/05/29 00:07:36;;;;;;;29.17;3.92;;;;;;;36.31;13.14;100261.41;5086580;28;20024;-64
2022/05/29 00:10:10;;;;;;;29.65;4.15;;;;;;;36.60;13.21;100251.97;5084422;28;20037;-64
2022/05/29 00:12:39;;;;;;;31.75;4.10;;;;;;;35.95;13.80;100249.56;5086691;28;20051;-64
2022/05/29 00:15:06;;;;;;;43.10;3.97;;;;;;;36.60;13.13;100249.13;5082654;28;20024;-64
2022/05/29 00:17:33;;;;;;;22.23;3.10;;;;;;;36.86;12.77;100250.72;5080553;28;20031;-64
2022/05/29 00:20:00;;;;;;;18.05;2.80;;;;;;;36.41;12.82;100248.13;5085161;28;20436;-63
2022/05/29 00:22:30;;;;;;;32.20;3.75;;;;;;;36.38;12.96;100265.22;5086749;28;20032;-63
2022/05/29 00:24:57;;;;;;;29.45;3.97;;;;;;;36.53;12.61;100260.69;5084567;28;20043;-65
2022/05/29 00:27:23;;;;;;;26.88;3.50;;;;;;;37.17;12.14;100264.22;5082310;28;20118;-63
2022/05/29 00:29:50;;;;;;;26.27;3.60;;;;;;;36.71;12.68;100260.91;5082364;28;20034;-63
2022/05/29 00:32:17;;;;;;;41.55;4.40;;;;;;;36.27;12.91;100255.03;5080779;28;20486;-64
2022/05/29 00:34:44;;;;;;;52.35;5.60;;;;;;;36.83;12.01;100267.84;5082891;28;20039;-63
2022/05/29 00:37:11;;;;;;;37.85;4.38;;;;;;;36.49;12.52;100249.50;5082958;28;20016;-62
2022/05/29 00:39:38;;;;;;;32.97;4.85;;;;;;;36.98;12.23;100248.28;5086241;28;20089;-63
2022/05/29 00:42:07;;;;;;;45.78;5.20;;;;;;;36.64;11.99;100249.03;5087945;28;20463;-63
2022/05/29 00:44:35;;;;;;;32.40;4.55;;;;;;;36.30;12.26;100242.00;5075403;28;20046;-62
2022/05/29 00:47:10;;;;;;;43.00;4.68;;;;;;;36.69;12.44;100239.97;5085251;28;20024;-63
2022/05/29 00:49:38;;;;;;;25.65;3.45;;;;;;;36.06;12.54;100227.38;5085190;28;20036;-63
2022/05/29 00:52:28;;;;;;;32.55;4.20;;;;;;;36.17;12.92;100247.66;5078911;28;20025;-62
2022/05/29 00:55:00;;;;;;;44.78;5.15;;;;;;;35.36;12.93;100259.31;5084405;28;20025;-64
2022/05/29 00:57:38;;;;;;;65.70;6.72;;;;;;;34.61;13.69;100235.81;5079802;28;20181;-63
2022/05/29 01:00:22;;;;;;;65.88;6.88;;;;;;;34.47;13.99;100245.44;5081789;28;20139;-62
2022/05/29 01:02:49;;;;;;;;;;;;;;;33.96;14.39;100254.66;5085197;28;20063;-63
2022/05/29 01:05:18;;;;;;;56.38;6.38;;;;;;;33.88;14.29;100260.44;5079325;28;19916;-63
2022/05/29 01:07:56;;;;;;;68.25;7.70;;;;;;;33.65;14.83;100235.94;5087636;28;20147;-64
2022/05/29 01:10:54;;;;;;;60.65;7.13;;;;;;;33.47;15.08;100248.81;5088817;28;20036;-64
2022/05/29 01:13:53;;;;;;;31.80;6.10;;;;;;;33.01;15.45;100233.53;5089770;28;20028;-62
2022/05/29 01:16:36;;;;;;;55.75;7.90;;;;;;;33.07;15.40;100220.56;5085360;28;20111;-62
2022/05/29 01:19:15;;;;;;;101.70;13.43;;;;;;;32.88;16.03;100218.53;5075786;28;20371;-63
2022/05/29 01:22:03;;;;;;;128.55;14.75;;;;;;;32.66;16.56;100227.28;5087990;28;20040;-62
2022/05/29 01:24:55;;;;;;;78.70;10.35;;;;;;;32.66;16.40;100232.91;5087976;28;20457;-62
2022/05/29 01:27:43;;;;;;;46.40;4.82;;;;;;;32.67;16.00;100216.81;5083471;28;20040;-62
2022/05/29 01:30:14;;;;;;;47.10;4.88;;;;;;;32.87;15.53;100225.38;5084217;28;20136;-62
2022/05/29 01:32:46;;;;;;;75.75;11.77;;;;;;;32.57;16.04;100232.66;5088899;28;20500;-62
2022/05/29 01:35:22;;;;;;;70.80;10.52;;;;;;;32.22;16.55;100221.94;5087475;28;20533;-62
2022/05/29 01:37:51;;;;;;;72.75;9.15;;;;;;;32.29;16.13;100230.28;5087468;28;20114;-62
2022/05/29 01:40:41;;;;;;;53.45;7.25;;;;;;;31.89;16.70;100223.63;5088921;28;20031;-62
2022/05/29 01:43:10;;;;;;;50.97;7.53;;;;;;;31.82;17.22;100227.34;5087267;28;20495;-62
2022/05/29 01:45:55;;;;;;;45.25;6.20;;;;;;;31.43;17.41;100228.59;5087053;28;20407;-63
2022/05/29 01:48:43;;;;;;;81.13;9.13;;;;;;;31.04;17.93;100250.63;5083720;28;20052;-64
2022/05/29 01:51:23;;;;;;;50.33;5.97;;;;;;;30.93;18.15;100259.97;5086214;28;20034;-67
2022/05/29 01:53:56;;;;;;;40.33;5.47;;;;;;;30.74;18.37;100280.16;5083029;28;20393;-64
2022/05/29 01:56:33;;;;;;;41.17;5.47;;;;;;;30.71;18.62;100264.16;5089719;28;20036;-63
2022/05/29 01:59:14;;;;;;;28.50;4.40;;;;;;;30.55;18.59;100269.47;5084289;28;20080;-62
2022/05/29 02:01:48;;;;;;;23.50;3.28;;;;;;;30.45;18.68;100268.31;5087171;28;20035;-62
2022/05/29 02:04:17;;;;;;;;;;;;;;;30.43;19.27;100264.34;5085389;28;20041;-62
2022/05/29 02:09:41;;;;;;;32.72;4.13;;;;;;;30.46;19.18;100266.31;5092404;28;20058;-63
2022/05/29 02:12:14;;;;;;;26.33;3.17;;;;;;;30.41;19.21;100272.38;5094040;28;20490;-63
2022/05/29 02:14:48;;;;;;;17.92;3.05;;;;;;;30.25;19.39;100268.06;5083337;28;20694;-62
2022/05/29 02:17:27;;;;;;;27.47;3.90;;;;;;;30.09;19.52;100267.75;5080337;28;20032;-64
2022/05/29 02:20:05;;;;;;;24.45;3.05;;;;;;;30.00;19.82;100278.59;5084652;28;20040;-63
2022/05/29 02:22:35;;;;;;;24.67;3.40;;;;;;;29.73;20.38;100273.47;5090999;28;20024;-61
2022/05/29 02:25:13;;;;;;;23.35;3.65;;;;;;;29.58;20.29;100282.34;5085903;28;20044;-63
2022/05/29 02:28:05;;;;;;;21.77;3.50;;;;;;;29.52;20.44;100279.16;5081655;28;20049;-62
2022/05/29 02:31:02;;;;;;;32.45;4.65;;;;;;;29.30;21.03;100267.19;5084025;28;20103;-65
2022/05/29 02:34:07;;;;;;;23.63;2.72;;;;;;;29.16;20.84;100268.00;5078547;28;20040;-62
2022/05/29 02:36:38;;;;;;;14.65;2.22;;;;;;;29.03;21.50;100271.63;5083498;28;20036;-62
2022/05/29 02:39:28;;;;;;;17.90;3.28;;;;;;;28.94;21.64;100265.66;5094450;28;20097;-63
2022/05/29 02:42:08;;;;;;;33.72;3.63;;;;;;;28.85;21.37;100280.00;5094577;28;20035;-63
2022/05/29 02:44:49;;;;;;;24.38;3.60;;;;;;;28.70;21.68;100267.19;5078709;28;20035;-63
2022/05/29 02:47:41;;;;;;;21.95;3.70;;;;;;;28.62;22.24;100288.78;5094588;28;20032;-62
2022/05/29 02:50:21;;;;;;;25.23;3.70;;;;;;;28.55;22.30;100283.19;5087652;28;20048;-63
2022/05/29 02:52:52;;;;;;;20.13;3.35;;;;;;;28.47;21.92;100278.78;5094489;28;20039;-62
2022/05/29 02:55:24;;;;;;;20.25;3.63;;;;;;;28.42;22.54;100290.34;5094176;28;20024;-61
2022/05/29 02:57:59;;;;;;;24.02;3.70;;;;;;;28.41;22.46;100278.38;5094569;28;20473;-62
2022/05/29 03:00:30;;;;;;;17.23;2.85;;;;;;;28.25;22.38;100284.31;5093884;28;20058;-62
2022/05/29 03:03:27;;;;;;;15.98;3.30;;;;;;;28.28;22.82;100282.72;5094043;28;20028;-63
2022/05/29 03:06:13;;;;;;;16.08;2.92;;;;;;;28.19;22.75;100285.09;5094006;28;20032;-63
2022/05/29 03:08:54;;;;;;;19.17;3.22;;;;;;;28.15;22.89;100281.44;5079148;28;20031;-64
2022/05/29 03:11:33;;;;;;;17.85;2.60;;;;;;;28.11;22.99;100287.03;5093962;28;20120;-63
2022/05/29 03:14:10;;;;;;;10.98;2.33;;;;;;;28.06;23.60;100281.03;5091810;28;20028;-64
2022/05/29 03:17:09;;;;;;;13.95;2.45;;;;;;;27.98;23.66;100281.00;5092699;28;20028;-64
2022/05/29 03:19:58;;;;;;;15.02;2.28;;;;;;;27.97;23.62;100281.41;5093412;28;20027;-63
2022/05/29 03:22:58;;;;;;;12.15;1.90;;;;;;;27.98;23.60;100286.59;5093636;28;20028;-63
2022/05/29 03:25:41;;;;;;;8.20;1.63;;;;;;;27.96;23.89;100290.97;5092857;28;20040;-64
2022/05/29 03:28:16;;;;;;;7.20;1.80;;;;;;;27.93;23.73;100295.34;5093642;28;20394;-63
2022/05/29 03:30:45;;;;;;;8.73;2.03;;;;;;;27.81;24.26;100301.28;5093410;28;20494;-64
2022/05/29 03:33:15;;;;;;;11.88;2.10;;;;;;;27.81;24.06;100304.06;5090794;28;20031;-64
2022/05/29 03:35:53;;;;;;;12.40;2.03;;;;;;;27.78;24.33;100306.84;5090941;28;20031;-64
2022/05/29 03:38:22;;;;;;;7.60;2.20;;;;;;;27.81;24.42;100308.84;5093384;28;20028;-63
2022/05/29 03:40:50;;;;;;;10.75;2.67;;;;;;;27.72;24.43;100298.06;5091686;28;20036;-64
2022/05/29 03:43:17;;;;;;;12.38;2.63;;;;;;;27.72;24.55;100286.09;5089760;28;20179;-65
2022/05/29 03:45:43;;;;;;;6.47;2.08;;;;;;;27.75;24.12;100302.84;5093525;28;20028;-63
2022/05/29 03:48:10;;;;;;;7.43;1.83;;;;;;;27.71;24.43;100293.66;5093364;28;20561;-65
2022/05/29 03:50:37;;;;;;;8.13;2.13;;;;;;;27.65;24.40;100309.19;5093690;28;20062;-64
2022/05/29 03:53:04;;;;;;;14.52;2.97;;;;;;;27.54;24.31;100320.25;5094220;28;20031;-64
2022/05/29 03:55:32;;;;;;;9.50;2.67;;;;;;;27.38;24.37;100305.81;5094044;28;20016;-64
2022/05/29 03:57:59;;;;;;;11.65;2.67;;;;;;;27.37;24.46;100305.00;5090556;28;20036;-63
2022/05/29 04:00:26;;;;;;;17.38;2.78;;;;;;;27.28;24.52;100301.75;5092959;28;20026;-64
2022/05/29 04:02:53;;;;;;;13.63;2.35;;;;;;;27.31;24.74;100294.59;5093767;28;20028;-65
2022/05/29 04:05:24;;;;;;;10.15;2.45;;;;;;;27.39;24.09;100301.81;5094060;28;20431;-63
2022/05/29 04:13:29;;;;;;;10.15;2.40;;;;;;;27.21;24.16;100292.53;5093842;28;20114;-64
2022/05/29 04:15:56;;;;;;;11.38;2.10;;;;;;;27.22;24.02;100283.78;5093632;28;20478;-63
2022/05/29 04:18:22;;;;;;;10.18;2.08;;;;;;;27.18;24.15;100290.53;5093641;28;20028;-63
2022/05/29 04:20:53;;;;;;;7.57;1.75;;;;;;;27.20;24.09;100276.97;5091683;28;20037;-61
2022/05/29 04:23:20;;;;;;;7.13;1.70;;;;;;;27.20;23.82;100275.00;5091943;28;20402;-63
2022/05/29 04:25:47;;;;;;;10.02;1.52;;;;;;;27.21;23.72;100278.59;5093572;28;20045;-62
2022/05/29 04:28:14;;;;;;;13.25;1.98;;;;;;;27.19;23.40;100287.34;5093204;28;20031;-62
2022/05/29 04:30:41;;;;;;;12.05;1.88;;;;;;;27.07;23.53;100307.16;5093346;28;20049;-62
2022/05/29 04:33:08;;;;;;;11.43;1.95;;;;;;;26.95;23.86;100315.81;5092009;28;20032;-61
2022/05/29 04:35:44;;;;;;;4.55;1.58;;;;;;;26.87;24.31;100316.94;5092649;28;20032;-64
2022/05/29 04:38:12;;;;;;;12.60;1.90;;;;;;;26.78;24.86;100320.06;5091962;28;20069;-62
2022/05/29 04:40:40;;;;;;;12.05;2.45;;;;;;;26.86;25.17;100324.50;5092572;28;20024;-62
2022/05/29 04:43:08;;;;;;;12.38;2.67;;;;;;;26.84;25.16;100329.66;5093037;28;20540;-63
2022/05/29 04:45:35;;;;;;;13.77;2.13;;;;;;;26.83;24.91;100330.84;5092467;28;20579;-62
2022/05/29 04:48:01;;;;;;;15.65;2.13;;;;;;;26.94;25.01;100325.38;5091783;28;20043;-64
2022/05/29 04:50:28;;;;;;;16.48;2.22;;;;;;;27.02;25.17;100327.06;5093054;28;20020;-64
2022/05/29 04:52:55;;;;;;;10.63;1.95;;;;;;;27.01;25.18;100319.88;5093042;28;20510;-64
2022/05/29 04:55:22;;;;;;;17.98;2.35;;;;;;;26.95;25.41;100329.78;5092402;28;20493;-63
2022/05/29 04:57:49;;;;;;;14.35;1.92;;;;;;;26.79;25.72;100350.34;5093206;28;20482;-64
2022/05/29 05:00:16;;;;;;;13.95;2.28;;;;;;;26.75;25.66;100349.50;5093104;28;20501;-64
2022/05/29 05:02:43;;;;;;;8.45;2.15;;;;;;;26.78;25.77;100351.53;5092008;28;20115;-64
2022/05/29 05:05:11;;;;;;;9.90;1.60;;;;;;;26.75;25.78;100337.53;5075296;28;20047;-63
2022/05/29 05:07:38;;;;;;;6.43;2.00;;;;;;;26.71;25.70;100331.94;5090849;28;20078;-62
2022/05/29 05:10:11;;;;;;;4.82;1.80;;;;;;;26.73;25.63;100331.53;5092947;28;20016;-63
2022/05/29 05:12:42;;;;;;;4.90;1.67;;;;;;;26.64;26.14;100329.09;5093384;28;20028;-63
2022/05/29 05:15:10;;;;;;;4.90;1.50;;;;;;;26.64;25.85;100329.09;5093171;28;20043;-63
2022/05/29 05:17:37;;;;;;;4.18;1.95;;;;;;;26.57;26.05;100322.63;5093372;28;20524;-63
2022/05/29 05:20:05;;;;;;;7.97;2.28;;;;;;;26.50;26.22;100326.16;5074680;28;20410;-63
2022/05/29 05:22:31;;;;;;;5.95;1.40;;;;;;;26.44;26.86;100331.28;5092078;28;20036;-63
2022/05/29 05:24:58;;;;;;;8.15;1.40;;;;;;;26.35;26.75;100341.09;5092079;28;20090;-63
2022/05/29 05:27:25;;;;;;;6.80;2.17;;;;;;;26.29;27.38;100329.47;5093209;28;20467;-63
2022/05/29 05:29:52;;;;;;;7.63;1.60;;;;;;;26.31;27.44;100331.88;5092969;28;20552;-65
2022/05/29 05:32:19;;;;;;;7.22;1.67;;;;;;;26.32;27.49;100339.84;5092965;28;20116;-63
2022/05/29 05:34:46;;;;;;;6.03;1.65;;;;;;;26.30;27.80;100342.22;5091688;28;20040;-63
2022/05/29 05:37:13;;;;;;;5.32;1.48;;;;;;;26.26;27.77;100330.25;5091409;28;20024;-63
2022/05/29 05:39:41;;;;;;;7.57;1.50;;;;;;;26.27;28.13;100328.25;5093021;28;20039;-65
2022/05/29 05:42:08;;;;;;;7.30;1.60;;;;;;;26.33;28.36;100318.38;5093083;28;20028;-63
2022/05/29 05:44:35;;;;;;;6.93;1.45;;;;;;;26.48;28.20;100320.16;5091726;28;20029;-63
2022/05/29 05:47:02;;;;;;;14.40;2.20;;;;;;;26.48;28.51;100298.66;5092882;28;20486;-63
2022/05/29 05:49:29;;;;;;;8.25;1.60;;;;;;;26.48;28.60;100303.44;5091671;28;20032;-63
2022/05/29 05:51:59;;;;;;;13.50;2.63;;;;;;;26.63;28.69;100305.19;5074745;28;20355;-63
2022/05/29 05:54:30;;;;;;;14.70;2.28;;;;;;;26.53;28.66;100303.06;5092821;28;20444;-64
2022/05/29 05:56:57;;;;;;;12.50;2.08;;;;;;;26.61;28.47;100295.59;5092518;28;20043;-63
2022/05/29 05:59:24;;;;;;;11.63;2.17;;;;;;;26.46;28.62;100287.09;5091955;28;20028;-64
2022/05/29 06:01:52;;;;;;;22.83;2.72;;;;;;;26.59;28.88;100284.84;5088681;28;20111;-65
2022/05/29 06:04:20;;;;;;;24.50;2.70;;;;;;;26.64;28.29;100278.91;5078411;28;20153;-64
2022/05/29 06:06:47;;;;;;;24.95;3.72;;;;;;;26.65;28.10;100285.28;5090133;28;20039;-66
2022/05/29 06:09:14;;;;;;;26.83;4.25;;;;;;;26.70;28.06;100282.94;5091081;28;20115;-64
2022/05/29 06:11:41;;;;;;;28.77;3.83;;;;;;;26.54;28.84;100279.59;5087942;28;20059;-64
2022/05/29 06:14:08;;;;;;;28.85;3.83;;;;;;;26.63;28.55;100276.50;5083068;28;20034;-63
2022/05/29 06:16:36;;;;;;;29.17;3.75;;;;;;;26.50;28.34;100278.78;5083626;28;20063;-63
2022/05/29 06:19:06;;;;;;;27.77;3.65;;;;;;;26.49;28.65;100274.38;5082609;28;20036;-65
2022/05/29 06:21:35;;;;;;;20.40;2.88;;;;;;;26.35;28.42;100283.38;5089215;28;20058;-67
2022/05/29 06:24:04;;;;;;;28.92;5.68;;;;;;;26.31;28.78;100284.50;5087823;28;20039;-66
2022/05/29 06:26:31;;;;;;;28.33;6.00;;;;;;;26.26;28.35;100282.88;5082790;28;20038;-63
2022/05/29 06:28:57;;;;;;;28.17;4.93;;;;;;;26.13;28.73;100270.38;5085785;28;20066;-64
2022/05/29 06:31:24;;;;;;;26.58;6.07;;;;;;;26.09;29.01;100273.16;5083219;28;20122;-65
2022/05/29 06:33:51;;;;;;;27.75;4.38;;;;;;;26.09;28.67;100275.94;5085869;28;20929;-65
2022/05/29 06:36:24;;;;;;;36.50;4.53;;;;;;;26.10;29.06;100273.94;5083563;28;20075;-64
2022/05/29 06:38:53;;;;;;;35.45;4.53;;;;;;;25.96;29.09;100271.78;5090931;28;20043;-65
2022/05/29 06:41:21;;;;;;;28.73;4.70;;;;;;;25.89;29.49;100275.31;5082540;28;20029;-64
2022/05/29 06:43:50;;;;;;;43.63;5.15;;;;;;;25.89;29.32;100264.16;5080180;28;20450;-65
2022/05/29 06:46:17;;;;;;;30.83;4.50;;;;;;;25.80;29.70;100254.50;5083947;28;20107;-65
2022/05/29 06:48:44;;;;;;;31.13;3.80;;;;;;;25.79;29.64;100258.44;5089853;28;20028;-65
2022/05/29 06:51:21;;;;;;;32.97;5.10;;;;;;;25.79;29.36;100259.25;5089554;28;20060;-65
2022/05/29 06:53:52;;;;;;;35.75;5.18;;;;;;;25.75;29.52;100263.19;5085722;28;20055;-65
2022/05/29 06:56:20;;;;;;;36.40;5.18;;;;;;;25.85;29.32;100259.72;5090662;28;20028;-66
2022/05/29 06:58:47;;;;;;;29.15;4.32;;;;;;;25.70;29.62;100252.38;5088272;28;20024;-65
2022/05/29 07:07:10;;;;;;;34.40;5.30;;;;;;;25.69;29.88;100253.56;5084485;28;20104;-64
2022/05/29 07:09:41;;;;;;;39.03;6.38;;;;;;;25.66;30.54;100266.22;5082991;28;20190;-64
2022/05/29 07:12:10;;;;;;;49.05;5.13;;;;;;;25.59;30.17;100247.44;5088551;28;20556;-61
2022/05/29 07:14:53;;;;;;;48.03;5.05;;;;;;;25.56;30.56;100256.56;5093498;28;20039;-64
2022/05/29 07:17:22;;;;;;;47.65;4.55;;;;;;;25.61;30.33;100256.22;5093145;28;20541;-64
2022/05/29 07:19:49;;;;;;;33.83;4.07;;;;;;;25.47;30.26;100256.03;5092895;28;20363;-63
2022/05/29 07:22:16;;;;;;;25.77;3.35;;;;;;;25.45;30.32;100261.16;5094710;28;20033;-65
2022/05/29 07:24:43;;;;;;;18.52;3.08;;;;;;;25.37;30.51;100259.47;5094074;28;20024;-65
2022/05/29 07:27:11;;;;;;;17.95;2.63;;;;;;;25.20;31.26;100248.91;5093858;28;20048;-64
2022/05/29 07:29:39;;;;;;;25.10;3.75;;;;;;;24.91;31.37;100245.63;5094005;28;20043;-64
2022/05/29 07:32:06;;;;;;;18.42;2.95;;;;;;;24.92;31.50;100258.38;5091349;28;20028;-66
2022/05/29 07:34:33;;;;;;;19.88;5.88;;;;;;;25.04;31.83;100249.06;5093071;28;20012;-66
2022/05/29 07:37:12;;;;;;;13.35;2.97;;;;;;;24.90;32.07;100249.59;5094158;28;20036;-64
2022/05/29 07:39:44;;;;;;;14.85;4.95;;;;;;;24.85;32.05;100246.34;5093349;28;20092;-64
2022/05/29 07:44:56;;;;;;;12.65;2.47;;;;;;;24.59;32.64;100242.34;5093074;28;20028;-65
2022/05/29 07:47:27;;;;;;;10.52;1.80;;;;;;;24.60;32.36;100234.81;5093854;28;20493;-63
2022/05/29 07:49:57;;;;;;;14.68;2.45;;;;;;;24.57;32.63;100243.88;5091195;28;20123;-63
2022/05/29 07:52:24;;;;;;;14.43;2.95;;;;;;;24.50;32.84;100229.88;5093994;28;20028;-64
2022/05/29 07:54:52;;;;;;;11.55;2.08;;;;;;;24.54;32.83;100239.06;5093381;28;20062;-65
2022/05/29 07:57:20;;;;;;;11.98;2.40;;;;;;;24.38;33.11;100226.09;5092376;28;20671;-62
2022/05/29 07:59:47;;;;;;;13.65;2.45;;;;;;;24.47;32.95;100230.63;5091190;28;20586;-63
2022/05/29 08:02:14;;;;;;;15.65;2.67;;;;;;;24.45;33.29;100239.34;5092695;28;20477;-62
2022/05/29 08:04:42;;;;;;;12.32;1.92;;;;;;;24.42;33.06;100228.97;5093634;28;20032;-64
2022/05/29 08:07:10;;;;;;;15.75;2.42;;;;;;;24.21;33.67;100223.78;5093717;28;20028;-64
2022/05/29 08:09:38;;;;;;;19.92;2.92;;;;;;;24.16;33.72;100221.31;5092169;28;20104;-65
2022/05/29 08:12:05;;;;;;;14.50;2.38;;;;;;;24.06;33.91;100221.94;5094146;28;20056;-64
2022/05/29 08:14:32;;;;;;;15.02;2.70;;;;;;;24.11;33.72;100216.88;5090921;28;20067;-64
2022/05/29 08:16:59;;;;;;;27.33;2.83;;;;;;;23.95;34.39;100213.38;5093546;28;20027;-64
2022/05/29 08:19:26;;;;;;;15.63;2.58;;;;;;;24.02;33.93;100207.16;5093587;28;20065;-63
2022/05/29 08:21:53;;;;;;;20.35;2.88;;;;;;;23.87;34.31;100199.72;5090636;28;20063;-64
2022/05/29 08:32:38;;;;;;;21.08;2.90;;;;;;;23.51;34.92;100191.47;5091529;28;20036;-65
2022/05/29 08:35:05;;;;;;;18.48;2.17;;;;;;;23.45;34.95;100173.53;5093201;28;20024;-64
2022/05/29 08:37:32;;;;;;;14.07;3.33;;;;;;;23.59;34.58;100170.28;5093231;28;20051;-65
2022/05/29 08:40:00;;;;;;;13.77;1.98;;;;;;;23.87;33.96;100175.56;5091865;28;20097;-66
2022/05/29 08:42:30;;;;;;;16.48;2.70;;;;;;;23.71;34.08;100158.22;5091856;28;20032;-66
2022/05/29 08:44:59;;;;;;;12.65;2.78;;;;;;;23.84;33.83;100165.19;5093210;28;20482;-65
2022/05/29 08:47:29;;;;;;;16.13;2.55;;;;;;;23.83;33.65;100160.81;5091892;28;20045;-64
2022/05/29 08:49:56;;;;;;;14.93;2.33;;;;;;;24.27;32.67;100150.13;5090905;28;20112;-64
2022/05/29 08:52:47;;;;;;;12.20;2.05;;;;;;;24.34;32.48;100158.59;5093001;28;20025;-65
2022/05/29 08:55:16;;;;;;;10.90;2.28;;;;;;;24.54;31.89;100164.84;5089310;28;20060;-65
2022/05/29 08:58:07;;;;;;;7.97;1.70;;;;;;;24.42;32.28;100162.31;5093028;28;20547;-64
2022/05/29 09:01:06;;;;;;;10.82;1.90;;;;;;;24.26;32.50;100159.63;5090211;28;20040;-65
2022/05/29 09:03:36;;;;;;;10.30;1.80;;;;;;;24.53;31.71;100159.69;5090274;28;20079;-64
2022/05/29 09:06:10;;;;;;;11.88;1.83;;;;;;;24.57;31.66;100172.44;5093071;28;20046;-65
2022/05/29 09:08:43;;;;;;;8.13;1.50;;;;;;;24.41;32.02;100167.03;5090753;28;20119;-65
2022/05/29 09:11:18;;;;;;;9.73;1.85;;;;;;;24.35;32.01;100164.94;5092759;28;20559;-66
2022/05/29 09:13:54;;;;;;;8.50;2.00;;;;;;;24.41;32.04;100161.47;5092911;28;20467;-64
2022/05/29 09:16:24;;;;;;;10.07;2.10;;;;;;;24.54;31.76;100156.53;5091303;28;20024;-65
2022/05/29 09:19:08;;;;;;;11.02;1.73;;;;;;;24.63;31.69;100157.09;5092656;28;20418;-64
2022/05/29 09:21:48;;;;;;;13.05;1.50;;;;;;;24.63;31.61;100148.75;5090260;28;20482;-64
2022/05/29 09:24:22;;;;;;;11.55;1.70;;;;;;;24.56;31.60;100158.94;5090660;28;20036;-65
2022/05/29 09:26:49;;;;;;;8.27;1.52;;;;;;;24.47;31.90;100148.09;5092755;28;20340;-64
2022/05/29 09:29:16;;;;;;;9.38;2.22;;;;;;;24.41;32.35;100139.25;5093188;28;20032;-64
2022/05/29 09:31:43;;;;;;;7.35;1.77;;;;;;;24.25;32.54;100146.91;5091970;28;20386;-65
2022/05/29 09:34:11;;;;;;;4.40;1.50;;;;;;;24.06;33.38;100146.97;5092914;28;20028;-64
2022/05/29 09:37:14;;;;;;;7.13;1.63;;;;;;;23.92;34.05;100146.72;5092726;28;20032;-65
2022/05/29 09:39:47;;;;;;;6.50;1.85;;;;;;;24.05;33.92;100153.69;5091836;28;20371;-65
2022/05/29 09:42:42;;;;;;;4.30;1.63;;;;;;;23.89;34.02;100145.47;5096861;28;20032;-65
2022/05/29 09:45:23;;;;;;;5.43;1.45;;;;;;;23.96;33.84;100142.03;5096970;28;20046;-64
2022/05/29 09:50:44;;;;;;;9.60;2.20;;;;;;;23.77;34.62;100137.31;5096954;28;20134;-66
2022/05/29 09:53:15;;;;;;;10.82;2.20;;;;;;;23.81;34.53;100138.19;5095702;28;20065;-67
2022/05/29 09:56:01;;;;;;;5.63;2.10;;;;;;;23.63;34.95;100143.41;5095728;28;20067;-66
2022/05/29 09:58:41;;;;;;;8.38;1.77;;;;;;;23.55;35.11;100135.28;5095784;28;20039;-65
2022/05/29 10:01:09;;;;;;;8.68;1.88;;;;;;;23.57;35.18;100141.28;5096651;28;20039;-65
2022/05/29 10:03:44;;;;;;;6.72;1.98;;;;;;;23.32;35.51;100146.28;5096609;28;20027;-66
2022/05/29 10:06:23;;;;;;;5.53;1.73;;;;;;;23.27;35.36;100141.03;5096449;28;20118;-67
2022/05/29 10:08:52;;;;;;;7.70;1.60;;;;;;;23.11;35.58;100136.38;5096443;28;20394;-65
2022/05/29 10:11:29;;;;;;;9.85;1.85;;;;;;;22.88;36.04;100143.78;5095417;28;20055;-65
2022/05/29 10:13:56;;;;;;;11.02;2.00;;;;;;;22.62;36.37;100141.56;5096384;28;20085;-65
2022/05/29 10:16:34;;;;;;;10.65;2.28;;;;;;;22.35;36.84;100156.34;5095470;28;20107;-64
2022/05/29 10:19:02;;;;;;;8.60;1.88;;;;;;;22.09;37.57;100154.09;5095174;28;20081;-65
2022/05/29 10:21:31;;;;;;;11.40;2.08;;;;;;;22.06;37.78;100165.88;5095917;28;20058;-65
2022/05/29 10:24:23;;;;;;;14.50;2.38;;;;;;;22.07;37.27;100161.94;5094707;28;20036;-66
2022/05/29 10:26:58;;;;;;;13.27;2.28;;;;;;;21.98;37.63;100160.13;5096264;28;20039;-66
2022/05/29 10:29:32;;;;;;;13.85;2.30;;;;;;;21.85;37.66;100147.50;5096170;28;20119;-66
2022/05/29 10:32:03;;;;;;;7.60;2.15;;;;;;;21.87;37.44;100156.25;5096189;28;20036;-66
2022/05/29 10:34:40;;;;;;;23.23;4.13;;;;;;;21.95;37.22;100158.06;5096014;28;20070;-66
2022/05/29 10:37:29;;;;;;;19.42;2.83;;;;;;;21.89;37.10;100169.72;5095802;28;20107;-65
2022/05/29 10:40:19;;;;;;;21.08;2.83;;;;;;;21.75;37.41;100169.38;5094370;28;20459;-66
2022/05/29 10:42:49;;;;;;;6.25;2.20;;;;;;;21.67;37.35;100173.88;5086657;28;20402;-65
2022/05/29 10:45:22;;;;;;;6.88;2.10;;;;;;;21.94;36.91;100170.31;5094445;28;20051;-64
2022/05/29 10:47:55;;;;;;;5.10;2.03;;;;;;;21.82;36.95;100170.34;5092526;28;20028;-63
2022/05/29 10:50:29;;;;;;;12.50;2.15;;;;;;;22.03;36.52;100168.16;5093742;28;20411;-66
2022/05/29 10:53:37;;;;;;;9.02;1.95;;;;;;;21.97;36.46;100172.34;5092605;28;20028;-65
2022/05/29 10:56:07;;;;;;;7.35;2.00;;;;;;;21.88;36.70;100180.00;5085737;28;20048;-65
2022/05/29 10:59:15;;;;;;;9.70;2.10;;;;;;;21.97;36.61;100168.78;5094421;28;20372;-65
2022/05/29 11:05:07;;;;;;;8.65;2.00;;;;;;;22.01;36.83;100164.94;5095845;28;20474;-66
2022/05/29 11:07:48;;;;;;;10.60;2.13;;;;;;;22.00;36.80;100168.88;5095282;28;20036;-65
2022/05/29 11:10:26;;;;;;;5.60;1.65;;;;;;;21.91;37.19;100161.91;5095776;28;20070;-65
2022/05/29 11:13:17;;;;;;;8.68;1.98;;;;;;;21.89;37.32;100158.66;5094048;28;20028;-64
2022/05/29 11:16:04;;;;;;;5.50;1.83;;;;;;;21.91;37.19;100159.16;5095331;28;20051;-64
2022/05/29 11:18:52;;;;;;;6.28;1.70;;;;;;;21.80;37.52;100172.69;5091655;28;20040;-65
2022/05/29 11:21:45;;;;;;;6.18;1.95;;;;;;;21.70;37.59;100178.69;5094865;28;20060;-65
2022/05/29 11:24:36;;;;;;;7.53;1.90;;;;;;;21.78;37.75;100180.53;5095181;28;20043;-65
2022/05/29 11:27:35;;;;;;;5.60;2.05;;;;;;;21.91;37.66;100175.75;5095034;28;20036;-66
2022/05/29 11:30:14;;;;;;;5.15;1.63;;;;;;;21.83;37.50;100174.72;5095140;28;20039;-66
2022/05/29 11:33:25;;;;;;;7.72;1.75;;;;;;;21.75;37.62;100166.59;5094917;28;20077;-64
2022/05/29 11:36:26;;;;;;;5.82;1.48;;;;;;;21.74;37.41;100176.88;5094906;28;20032;-65
2022/05/29 11:39:29;;;;;;;6.63;1.77;;;;;;;21.68;37.42;100179.06;5074671;28;20110;-64
2022/05/29 11:42:21;;;;;;;6.75;1.65;;;;;;;21.77;37.32;100176.16;5074511;28;20037;-64
2022/05/29 11:45:02;;;;;;;11.57;1.98;;;;;;;21.85;37.35;100166.88;5074730;28;20040;-65
2022/05/29 11:53:33;;;;;;;10.88;2.58;;;;;;;21.63;37.19;100167.44;5074251;28;20033;-66
2022/05/29 11:56:04;;;;;;;7.20;1.85;;;;;;;21.92;36.32;100177.34;5074374;28;20075;-65
2022/05/29 11:58:54;;;;;;;7.57;1.80;;;;;;;21.95;36.16;100171.09;5074072;28;20496;-65
2022/05/29 12:01:26;;;;;;;17.88;2.42;;;;;;;21.83;36.63;100171.97;5074161;28;20079;-64
2022/05/29 12:04:28;;;;;;;11.00;2.20;;;;;;;21.81;36.55;100190.88;5074027;28;20032;-64
2022/05/29 12:07:02;;;;;;;10.30;2.22;;;;;;;21.78;36.16;100193.56;5048257;28;20040;-66
2022/05/29 12:09:46;;;;;;;12.32;2.30;;;;;;;21.75;36.22;100200.59;5093036;28;20630;-64
2022/05/29 12:12:24;;;;;;;15.63;2.50;;;;;;;21.83;35.83;100199.63;5094214;28;20123;-64
2022/05/29 12:14:58;;;;;;;14.38;2.58;;;;;;;21.77;36.21;100197.47;5094151;28;20062;-65
2022/05/29 12:17:43;;;;;;;11.05;1.75;;;;;;;21.87;35.69;100194.19;5094136;28;20034;-64
2022/05/29 12:20:34;;;;;;;9.80;1.83;;;;;;;21.99;35.38;100200.47;5093961;28;20048;-65
2022/05/29 12:23:27;;;;;;;9.85;1.60;;;;;;;22.76;33.63;100204.81;5091221;28;20047;-66
2022/05/29 12:26:06;;;;;;;7.07;1.60;;;;;;;22.46;34.07;100213.59;5092845;28;20036;-65
2022/05/29 12:28:41;;;;;;;11.77;1.98;;;;;;;22.79;33.21;100227.03;5073771;28;20033;-65